ウルムチ の空港の天気 - METARとTAF

ウルムチ地窩堡国際空港 ( ZWWW / URC ) - 中国 新疆ウイグル自治区ウルムチ市
飛行場実況気象(Metar)
観測時間04/22 00:30 CST (04/21 16:30 UTC)
風向・風速不定 1m/s
視程10km以上
天気現象
なし
気温15℃
湿度72%
気圧1012hPa
METARZWWW 211630Z VRB01MPS CAVOK 15/10 Q1012 NOSIG
過去の天気等 Google飛行場航空写真 Wunderground天気予報

過去48時間のMETAR

飛行場予報(TAF)
発表時間: 4/21 17:06 CST (4/21 09:06 UTC)
予報対象時間: 21日20時 CST ~ 22日20時 CST
風向・風速西北西 4m/s
視程10km以上
少しの積乱雲 雲底高度 1220m
全天の8割程度の雲 雲底高度 1220m
21日23時 CST ~ 21日24時 CST に徐々に
風向・風速西南西 4m/s
視程10km以上
なし
22日10時 CST ~ 22日11時 CST に徐々に
風向・風速北西 4m/s
視程10km以上
天気現象弱いしゅう雨
全天の8割程度の雲 雲底高度 610m
22日13時 CST ~ 22日14時 CST に徐々に
風向・風速北北東 4m/s
視程10km以上
なし
TAF ZWWW 210906Z 2112/2212 30004MPS 9999 FEW040CB BKN040 TX21/2209Z TN11/2123Z
BECMG 2115/2116 24004MPS CAVOK
BECMG 2202/2203 32004MPS 9999 -SHRA BKN020
BECMG 2205/2206 03004MPS CAVOK